Time;durP1;ratioP1;P1;durP2;ratioP2;P2;SDS_P1;SDS_P2;PMS_P1;PMS_P2;Temp;Humidity;BMP_temperature;BMP_pressure;BME280_temperature;BME280_humidity;BME280_pressure;Samples;Min_cycle;Max_cycle;Signal;HPM_P1;HPM_P2
2023/04/21 00:00:46;;;;;;;15.82;13.40;;;;;;;6.15;82.25;96358.06;5017234;28;20141;-82
2023/04/21 00:03:14;;;;;;;18.98;14.55;;;;;;;6.21;82.68;96359.19;5017143;28;20052;-80
2023/04/21 00:05:43;;;;;;;16.50;13.68;;;;;;;6.23;82.35;96352.91;5017305;28;20049;-81
2023/04/21 00:08:11;;;;;;;18.25;14.38;;;;;;;6.28;82.91;96362.78;5017813;28;20053;-86
2023/04/21 00:10:39;;;;;;;18.98;14.25;;;;;;;6.35;82.96;96372.31;5017156;28;20552;-79
2023/04/21 00:13:07;;;;;;;19.20;14.48;;;;;;;6.38;82.54;96369.44;5017080;28;20133;-84
2023/04/21 00:15:34;;;;;;;19.23;15.40;;;;;;;6.44;82.41;96367.94;5016403;28;20052;-88
2023/04/21 00:18:03;;;;;;;22.67;16.33;;;;;;;6.45;81.56;96360.97;5017727;28;20061;-80
2023/04/21 00:20:31;;;;;;;20.40;15.82;;;;;;;6.37;80.37;96364.41;5018100;28;20057;-81
2023/04/21 00:23:02;;;;;;;20.75;15.55;;;;;;;6.29;80.01;96364.38;5017427;28;20050;-83
2023/04/21 00:25:33;;;;;;;22.83;15.65;;;;;;;6.22;79.93;96368.59;5016742;28;20042;-80
2023/04/21 00:28:00;;;;;;;21.98;16.10;;;;;;;6.11;79.90;96367.91;5016666;28;20073;-89
2023/04/21 00:30:30;;;;;;;21.48;16.60;;;;;;;6.06;80.50;96374.56;5017019;28;20497;-88
2023/04/21 00:32:58;;;;;;;21.35;14.85;;;;;;;6.08;80.83;96372.59;5016757;28;20050;-81
2023/04/21 00:35:26;;;;;;;21.73;14.80;;;;;;;6.11;80.96;96372.28;5017049;28;20054;-83
2023/04/21 00:37:53;;;;;;;21.25;15.07;;;;;;;6.15;81.48;96369.22;5017028;28;20132;-83
2023/04/21 00:40:23;;;;;;;18.00;14.45;;;;;;;6.23;82.15;96365.84;5016208;28;20060;-82
2023/04/21 00:42:50;;;;;;;19.45;15.30;;;;;;;6.30;81.97;96360.84;5016011;28;20053;-84
2023/04/21 00:45:20;;;;;;;20.40;15.50;;;;;;;6.35;81.81;96361.16;5015779;28;20475;-82
2023/04/21 00:47:48;;;;;;;18.65;14.55;;;;;;;6.36;80.89;96353.22;5015669;28;20497;-83
2023/04/21 00:50:16;;;;;;;21.45;15.85;;;;;;;6.34;80.26;96351.75;5015947;28;20049;-88
2023/04/21 00:52:45;;;;;;;21.83;15.45;;;;;;;6.30;79.85;96351.28;5016136;28;20132;-81
2023/04/21 00:55:14;;;;;;;20.23;15.90;;;;;;;6.28;80.04;96347.22;5016392;28;20203;-80
2023/04/21 00:57:43;;;;;;;19.90;15.25;;;;;;;6.28;79.98;96347.22;5016177;28;20133;-83
2023/04/21 01:00:13;;;;;;;20.48;15.05;;;;;;;6.28;79.71;96334.28;5016346;28;20526;-82
2023/04/21 01:02:41;;;;;;;20.17;14.55;;;;;;;6.28;79.97;96321.34;5015682;28;20053;-82
2023/04/21 01:05:11;;;;;;;18.80;13.80;;;;;;;6.28;79.95;96313.56;5015668;28;20510;-85
2023/04/21 01:07:39;;;;;;;16.92;12.13;;;;;;;6.27;79.93;96312.72;5015545;28;20053;-82
2023/04/21 01:10:08;;;;;;;16.92;13.20;;;;;;;6.25;79.72;96313.88;5015248;28;20494;-88
2023/04/21 01:12:44;;;;;;;16.08;12.70;;;;;;;6.26;80.37;96307.72;5015421;28;20109;-86
2023/04/21 01:15:13;;;;;;;15.75;12.00;;;;;;;6.27;79.67;96317.09;5021032;28;20076;-86
2023/04/21 01:17:40;;;;;;;14.57;12.50;;;;;;;6.25;79.50;96308.69;5020772;28;20092;-88
2023/04/21 01:20:12;;;;;;;15.70;12.30;;;;;;;6.23;79.57;96308.03;5020306;28;20105;-86
2023/04/21 01:22:43;;;;;;;15.15;12.20;;;;;;;6.19;79.71;96310.97;5019853;28;20050;-86
2023/04/21 01:25:11;;;;;;;18.90;13.35;;;;;;;6.21;79.81;96312.56;5020172;28;20046;-88
2023/04/21 01:27:39;;;;;;;16.20;11.52;;;;;;;6.19;80.10;96303.19;5019901;28;20048;-85
2023/04/21 01:30:08;;;;;;;14.45;11.45;;;;;;;6.22;80.39;96309.81;5018925;28;20109;-86
2023/04/21 01:32:36;;;;;;;12.98;10.40;;;;;;;6.27;80.83;96307.53;5019339;28;20132;-87
2023/04/21 01:35:05;;;;;;;13.93;10.60;;;;;;;6.35;81.64;96304.16;5019942;28;20054;-87
2023/04/21 01:37:34;;;;;;;16.42;13.43;;;;;;;6.42;81.09;96307.72;5019685;28;20066;-89
2023/04/21 01:40:05;;;;;;;18.88;13.73;;;;;;;6.43;80.59;96298.97;5020031;28;20061;-86
2023/04/21 01:42:34;;;;;;;20.90;15.30;;;;;;;6.42;80.28;96312.91;5019154;28;20140;-88
2023/04/21 01:45:02;;;;;;;16.13;12.75;;;;;;;6.45;80.99;96311.75;5019904;28;20085;-85
2023/04/21 01:47:30;;;;;;;18.75;14.25;;;;;;;6.47;80.51;96315.81;5019623;28;20060;-88
2023/04/21 01:49:58;;;;;;;17.80;13.60;;;;;;;6.44;80.31;96316.13;5019864;28;20444;-88
2023/04/21 01:52:26;;;;;;;19.15;14.20;;;;;;;6.43;80.33;96319.72;5019974;28;20164;-87
2023/04/21 01:54:54;;;;;;;21.13;15.63;;;;;;;6.43;80.47;96306.75;5019737;28;20079;-86
2023/04/21 01:57:23;;;;;;;19.95;14.85;;;;;;;6.39;80.78;96308.06;5019504;28;20052;-86
2023/04/21 01:59:51;;;;;;;22.73;16.00;;;;;;;6.36;80.42;96303.19;5019556;28;20069;-85
2023/04/21 02:02:19;;;;;;;18.80;14.05;;;;;;;6.34;80.56;96298.19;5019404;28;20049;-88
2023/04/21 02:04:46;;;;;;;20.52;14.75;;;;;;;6.33;80.49;96296.53;5019078;28;20057;-84
2023/04/21 02:07:14;;;;;;;17.65;13.65;;;;;;;6.33;80.65;96293.16;5018757;28;20084;-86
2023/04/21 02:09:42;;;;;;;16.60;12.52;;;;;;;6.38;81.11;96289.13;5018104;28;20132;-86
2023/04/21 02:12:11;;;;;;;16.50;13.23;;;;;;;6.43;80.96;96287.78;5017789;28;20491;-84
2023/04/21 02:14:40;;;;;;;16.33;12.68;;;;;;;6.44;80.92;96285.03;5018330;28;20073;-89
2023/04/21 02:17:11;;;;;;;18.73;13.38;;;;;;;6.49;81.25;96280.16;5018128;28;20076;-80
2023/04/21 02:19:39;;;;;;;13.65;11.15;;;;;;;6.57;81.90;96284.53;5018178;28;20053;-80
2023/04/21 02:22:09;;;;;;;16.80;12.43;;;;;;;6.64;82.03;96275.13;5017670;28;20070;-87
2023/04/21 02:24:37;;;;;;;16.45;12.38;;;;;;;6.68;81.91;96278.22;5018671;28;20052;-87
2023/04/21 02:27:05;;;;;;;17.30;13.27;;;;;;;6.75;82.27;96281.75;5018858;28;20083;-84
2023/04/21 02:29:33;;;;;;;19.02;13.02;;;;;;;6.76;81.66;96278.19;5018960;28;20432;-85
2023/04/21 02:32:02;;;;;;;19.83;13.93;;;;;;;6.75;81.08;96271.38;5018204;28;20048;-84
2023/04/21 02:34:48;;;;;;;16.38;12.77;;;;;;;6.77;81.80;96265.06;5017393;28;20056;-83
2023/04/21 02:37:16;;;;;;;16.55;13.05;;;;;;;6.82;82.54;96261.97;5017211;28;20077;-86
2023/04/21 02:39:43;;;;;;;19.95;14.02;;;;;;;6.84;82.21;96272.19;5017315;28;20508;-81
2023/04/21 02:42:11;;;;;;;17.38;13.98;;;;;;;6.80;82.07;96267.34;5017668;28;20050;-84
2023/04/21 02:44:38;;;;;;;23.73;16.63;;;;;;;6.75;81.14;96261.00;5017436;28;20058;-86
2023/04/21 02:47:07;;;;;;;20.95;15.93;;;;;;;6.68;80.31;96254.88;5016880;28;20054;-90
2023/04/21 02:49:39;;;;;;;21.05;15.88;;;;;;;6.63;80.33;96241.63;5018231;28;20064;-80
2023/04/21 02:52:07;;;;;;;18.63;14.90;;;;;;;6.62;81.34;96245.19;5020657;28;20050;-83
2023/04/21 02:54:34;;;;;;;19.90;15.48;;;;;;;6.66;82.24;96265.41;5020118;28;20283;-88
2023/04/21 02:57:02;;;;;;;25.35;16.83;;;;;;;6.72;82.78;96258.78;5020337;28;20486;-83
2023/04/21 02:59:30;;;;;;;21.92;16.15;;;;;;;6.75;83.09;96259.22;5019707;28;20133;-86
2023/04/21 03:01:57;;;;;;;21.98;16.88;;;;;;;6.77;82.18;96266.84;5020029;28;20054;-87
2023/04/21 03:04:26;;;;;;;22.45;16.08;;;;;;;6.72;80.90;96263.94;5019345;28;20069;-83
2023/04/21 03:06:54;;;;;;;19.83;14.15;;;;;;;6.69;81.45;96259.09;5019950;28;20046;-81
2023/04/21 03:09:22;;;;;;;21.95;16.10;;;;;;;6.67;81.42;96268.81;5021622;28;20056;-83
2023/04/21 03:11:49;;;;;;;20.20;16.05;;;;;;;6.66;81.40;96278.38;5023735;28;20406;-88
2023/04/21 03:14:17;;;;;;;20.88;16.10;;;;;;;6.62;81.07;96271.91;5023246;28;20457;-88
2023/04/21 03:16:46;;;;;;;22.83;16.65;;;;;;;6.56;80.71;96270.78;5023560;28;20072;-87
2023/04/21 03:19:13;;;;;;;23.45;17.17;;;;;;;6.53;80.61;96262.53;5022875;28;20567;-85
2023/04/21 03:21:42;;;;;;;24.17;17.15;;;;;;;6.48;80.25;96263.03;5023060;28;20137;-86
2023/04/21 03:24:10;;;;;;;19.27;14.55;;;;;;;6.47;81.65;96263.19;5022755;28;20062;-86
2023/04/21 03:26:38;;;;;;;22.75;17.33;;;;;;;6.48;81.66;96265.59;5022580;28;20052;-84
2023/04/21 03:29:06;;;;;;;26.60;17.17;;;;;;;6.48;81.15;96272.59;5023549;28;20065;-87
2023/04/21 03:31:34;;;;;;;22.95;16.52;;;;;;;6.46;80.72;96264.16;5022874;28;20048;-89
2023/04/21 03:34:01;;;;;;;18.45;14.75;;;;;;;6.47;81.52;96264.00;5022467;28;20072;-84
2023/04/21 03:36:30;;;;;;;16.98;13.38;;;;;;;6.51;82.42;96265.28;5022737;28;20045;-84
2023/04/21 03:38:59;;;;;;;22.50;15.65;;;;;;;6.56;83.34;96270.78;5021763;28;20254;-86
2023/04/21 03:41:46;;;;;;;17.77;14.63;;;;;;;6.60;82.91;96266.91;5022016;28;20124;-87
2023/04/21 03:44:14;;;;;;;19.58;14.95;;;;;;;6.60;82.89;96269.50;5022156;28;20054;-87
2023/04/21 03:46:42;;;;;;;21.75;15.63;;;;;;;6.58;82.11;96255.88;5021182;28;20058;-88
2023/04/21 03:49:09;;;;;;;20.90;15.68;;;;;;;6.51;81.24;96254.91;5021197;28;20050;-85
2023/04/21 03:51:37;;;;;;;22.85;16.60;;;;;;;6.41;80.69;96264.66;5021259;28;20056;-85
2023/04/21 03:54:07;;;;;;;20.48;15.27;;;;;;;6.31;80.82;96258.81;5020468;28;20554;-82
2023/04/21 03:56:34;;;;;;;20.08;14.77;;;;;;;6.25;81.34;96268.03;5020858;28;20111;-82
2023/04/21 03:59:02;;;;;;;20.90;14.68;;;;;;;6.24;81.74;96270.81;5020717;28;20049;-87
2023/04/21 04:01:30;;;;;;;20.15;15.55;;;;;;;6.19;81.14;96269.53;5020293;28;20045;-84
2023/04/21 04:03:57;;;;;;;21.00;15.75;;;;;;;6.11;81.23;96266.91;5019253;28;20057;-84
2023/04/21 04:06:27;;;;;;;21.77;15.23;;;;;;;6.02;81.07;96278.25;5018352;28;20104;-87
2023/04/21 04:08:54;;;;;;;20.17;14.25;;;;;;;5.98;81.43;96282.13;5018688;28;20061;-87
2023/04/21 04:11:23;;;;;;;19.83;14.90;;;;;;;5.96;81.56;96278.91;5017872;28;20053;-85
2023/04/21 04:13:51;;;;;;;16.63;13.10;;;;;;;5.93;81.88;96276.59;5017824;28;20429;-81
2023/04/21 04:16:18;;;;;;;18.30;14.15;;;;;;;5.92;82.11;96280.94;5016918;28;20054;-89
2023/04/21 04:18:46;;;;;;;16.13;12.38;;;;;;;5.95;82.46;96279.88;5017780;28;20421;-80
2023/04/21 04:21:14;;;;;;;17.83;11.98;;;;;;;5.94;81.84;96291.16;5017837;28;20422;-79
2023/04/21 04:23:41;;;;;;;14.63;11.10;;;;;;;5.90;81.43;96293.28;5017582;28;20056;-83
2023/04/21 04:26:10;;;;;;;15.63;11.45;;;;;;;5.89;81.10;96290.84;5017096;28;20050;-80
2023/04/21 04:28:39;;;;;;;13.77;10.57;;;;;;;5.89;81.78;96301.19;5017680;28;20128;-80
2023/04/21 04:31:06;;;;;;;14.73;10.45;;;;;;;5.93;81.98;96307.66;5019230;28;20053;-86
2023/04/21 04:33:34;;;;;;;14.27;10.75;;;;;;;5.95;81.43;96311.75;5022018;28;20058;-87
2023/04/21 04:36:01;;;;;;;15.23;10.88;;;;;;;5.93;81.19;96315.44;5017802;28;20105;-89
2023/04/21 04:38:29;;;;;;;13.80;10.48;;;;;;;5.90;80.69;96307.97;5018362;28;20056;-86
2023/04/21 04:40:57;;;;;;;17.63;11.05;;;;;;;5.85;80.29;96315.41;5018199;28;20072;-88
2023/04/21 04:43:25;;;;;;;13.82;9.57;;;;;;;5.82;80.64;96300.22;5017827;28;20049;-88
2023/04/21 04:45:54;;;;;;;11.68;9.63;;;;;;;5.82;80.65;96300.22;5018135;28;20113;-87
2023/04/21 04:48:23;;;;;;;11.85;9.52;;;;;;;5.80;80.71;96296.97;5017842;28;20132;-89
2023/04/21 04:50:50;;;;;;;14.55;10.05;;;;;;;5.77;80.53;96298.91;5017036;28;20050;-88
2023/04/21 04:53:18;;;;;;;16.38;11.80;;;;;;;5.72;80.30;96301.16;5016998;28;20434;-83
2023/04/21 04:55:46;;;;;;;17.95;12.73;;;;;;;5.67;80.30;96307.78;5017099;28;20049;-89
2023/04/21 04:58:13;;;;;;;20.73;12.57;;;;;;;5.66;80.80;96317.31;5017246;28;20060;-89
2023/04/21 05:00:41;;;;;;;18.77;12.98;;;;;;;5.70;81.94;96321.19;5017151;28;20422;-88
2023/04/21 05:03:10;;;;;;;23.70;16.40;;;;;;;5.74;81.09;96325.09;5016112;28;20117;-89
2023/04/21 05:05:38;;;;;;;26.20;17.17;;;;;;;5.74;80.86;96319.91;5016980;28;20556;-88
2023/04/21 05:08:05;;;;;;;20.70;14.18;;;;;;;5.72;80.72;96332.19;5016071;28;20042;-84
2023/04/21 05:10:33;;;;;;;18.85;13.68;;;;;;;5.74;81.11;96330.25;5016278;28;20556;-88
2023/04/21 05:13:01;;;;;;;18.65;13.63;;;;;;;5.75;80.53;96331.91;5015428;28;20071;-89
2023/04/21 05:15:29;;;;;;;17.63;12.82;;;;;;;5.79;81.23;96332.38;5016571;28;20088;-86
2023/04/21 05:17:56;;;;;;;17.50;12.55;;;;;;;5.89;82.29;96327.06;5016447;28;20061;-83
2023/04/21 05:20:25;;;;;;;15.52;11.93;;;;;;;5.95;82.08;96316.13;5016479;28;20064;-87
2023/04/21 05:22:53;;;;;;;18.20;13.85;;;;;;;6.02;82.63;96332.63;5016451;28;20053;-88
2023/04/21 05:25:20;;;;;;;19.98;15.07;;;;;;;6.11;83.49;96349.78;5016385;28;20061;-89
2023/04/21 05:27:48;;;;;;;24.17;15.75;;;;;;;6.22;82.66;96360.81;5015319;28;20068;-83
2023/04/21 05:30:16;;;;;;;23.08;17.13;;;;;;;6.27;81.63;96355.97;5015679;28;20046;-88
2023/04/21 05:32:43;;;;;;;20.33;15.00;;;;;;;6.33;81.09;96352.72;5015522;28;20046;-88
2023/04/21 05:35:11;;;;;;;18.20;13.43;;;;;;;6.33;80.41;96361.31;5014810;28;20433;-83
2023/04/21 05:37:40;;;;;;;16.55;13.48;;;;;;;6.35;81.14;96363.75;5021053;28;20233;-84
2023/04/21 05:40:09;;;;;;;17.27;13.93;;;;;;;6.46;82.79;96365.22;5042105;28;20056;-90
2023/04/21 05:42:37;;;;;;;16.65;13.15;;;;;;;6.53;81.16;96361.78;5024996;28;20115;-87
2023/04/21 05:45:06;;;;;;;15.38;12.65;;;;;;;6.56;79.58;96347.72;5019001;28;20054;-89
2023/04/21 05:47:34;;;;;;;13.90;11.60;;;;;;;6.60;79.27;96338.63;5013120;28;20104;-84
2023/04/21 05:50:01;;;;;;;17.63;14.55;;;;;;;6.64;78.98;96336.53;5020719;28;20049;-85
2023/04/21 05:52:33;;;;;;;21.88;15.27;;;;;;;6.68;78.72;96343.00;5019651;28;20157;-88
2023/04/21 05:55:03;;;;;;;25.15;16.35;;;;;;;6.68;78.41;96338.63;5020344;28;20052;-82
2023/04/21 05:57:31;;;;;;;22.58;15.35;;;;;;;6.70;78.09;96330.69;5020696;28;20141;-87
2023/04/21 05:59:59;;;;;;;27.70;17.52;;;;;;;6.70;78.43;96341.88;5018843;28;20080;-81
2023/04/21 06:02:27;;;;;;;21.02;15.55;;;;;;;6.77;78.92;96336.84;5018335;28;20696;-85
2023/04/21 06:04:55;;;;;;;19.67;14.07;;;;;;;6.87;78.45;96331.50;5004835;28;20045;-86
2023/04/21 06:07:23;;;;;;;16.23;12.75;;;;;;;6.94;78.66;96322.06;5016686;28;20631;-89
2023/04/21 06:09:51;;;;;;;15.70;11.95;;;;;;;7.05;78.04;96326.09;5017603;28;20073;-82
2023/04/21 06:12:20;;;;;;;16.20;11.75;;;;;;;7.15;78.78;96329.28;5018634;28;20136;-88
2023/04/21 06:14:47;;;;;;;16.33;12.02;;;;;;;7.28;78.84;96323.59;5018807;28;20054;-89
2023/04/21 06:17:17;;;;;;;15.90;12.25;;;;;;;7.42;77.99;96331.47;5018045;28;20060;-88
2023/04/21 06:19:45;;;;;;;13.38;10.23;;;;;;;7.59;77.56;96323.63;5014443;28;20054;-84
2023/04/21 06:22:13;;;;;;;12.80;10.07;;;;;;;7.76;77.39;96326.94;5017517;28;20046;-85
2023/04/21 06:24:40;;;;;;;16.00;11.68;;;;;;;7.99;77.68;96337.38;5020613;28;20144;-81
2023/04/21 06:27:11;;;;;;;13.98;11.10;;;;;;;8.16;76.88;96338.88;5021167;28;20105;-91
2023/04/21 06:29:42;;;;;;;15.32;11.73;;;;;;;8.26;76.46;96338.66;5009062;28;20562;-87
2023/04/21 06:32:10;;;;;;;15.88;11.90;;;;;;;8.38;76.40;96326.06;5010837;28;20088;-86
2023/04/21 06:34:38;;;;;;;16.55;12.95;;;;;;;8.48;76.20;96324.03;5020767;28;20065;-88
2023/04/21 06:37:06;;;;;;;17.85;12.95;;;;;;;8.56;76.04;96320.59;5020721;28;20076;-82
2023/04/21 06:39:34;;;;;;;18.88;13.43;;;;;;;8.62;76.28;96327.69;5022040;28;20050;-82
2023/04/21 06:42:02;;;;;;;17.88;13.63;;;;;;;8.69;76.42;96317.38;5022951;28;20050;-88
2023/04/21 06:44:31;;;;;;;21.13;14.07;;;;;;;8.75;76.42;96308.88;5024814;28;20050;-88
2023/04/21 06:47:00;;;;;;;18.02;13.02;;;;;;;8.82;76.25;96304.59;5026051;28;20081;-85
2023/04/21 06:49:28;;;;;;;21.60;14.52;;;;;;;8.88;75.77;96311.69;5011037;28;20069;-89
2023/04/21 06:51:55;;;;;;;21.45;15.43;;;;;;;8.91;75.46;96300.91;5019417;28;20045;-89
2023/04/21 06:54:23;;;;;;;22.65;15.13;;;;;;;8.97;75.54;96300.19;5026329;28;20041;-88
2023/04/21 06:56:51;;;;;;;21.33;15.35;;;;;;;9.04;75.62;96295.88;5016891;28;20054;-89
2023/04/21 06:59:19;;;;;;;18.73;13.68;;;;;;;9.13;75.82;96291.41;5019884;28;20058;-85
2023/04/21 07:01:51;;;;;;;18.25;14.10;;;;;;;9.23;76.10;96291.16;5005094;28;20054;-86
2023/04/21 07:04:20;;;;;;;18.80;13.15;;;;;;;9.32;74.94;96287.44;5004214;28;20050;-83
2023/04/21 07:06:49;;;;;;;18.38;13.68;;;;;;;9.44;74.90;96285.97;5005090;28;20047;-85
2023/04/21 07:09:16;;;;;;;18.15;13.07;;;;;;;9.60;75.30;96291.97;5008691;28;20042;-86
2023/04/21 07:11:45;;;;;;;21.02;15.23;;;;;;;9.70;74.07;96293.28;5023236;28;20050;-86
2023/04/21 07:14:13;;;;;;;18.13;13.35;;;;;;;9.80;74.11;96290.41;5011657;28;20106;-85
2023/04/21 07:16:40;;;;;;;19.73;14.40;;;;;;;9.92;73.09;96288.13;5008012;28;20053;-83
2023/04/21 07:19:08;;;;;;;20.20;14.20;;;;;;;10.00;72.17;96284.59;5007659;28;20528;-82
2023/04/21 07:21:38;;;;;;;20.45;14.40;;;;;;;10.10;71.66;96285.06;5024305;28;20054;-84
2023/04/21 07:24:06;;;;;;;21.02;14.18;;;;;;;10.21;71.67;96286.38;5023762;28;20081;-84
2023/04/21 07:26:34;;;;;;;20.38;14.05;;;;;;;10.28;71.32;96282.84;5023550;28;20049;-81
2023/04/21 07:29:01;;;;;;;22.30;15.35;;;;;;;10.32;71.24;96280.72;5023544;28;20050;-83
2023/04/21 07:31:29;;;;;;;18.20;13.60;;;;;;;10.37;71.58;96280.94;5022523;28;20073;-88
2023/04/21 07:33:57;;;;;;;17.05;12.82;;;;;;;10.38;71.88;96279.94;5022622;28;20050;-84
2023/04/21 07:36:27;;;;;;;20.42;14.48;;;;;;;10.42;71.93;96277.78;5023033;28;20457;-85
2023/04/21 07:38:59;;;;;;;19.10;14.52;;;;;;;10.44;70.62;96279.19;5022775;28;20045;-83
2023/04/21 07:41:28;;;;;;;21.83;14.75;;;;;;;10.40;70.44;96267.53;5021486;28;20053;-87
2023/04/21 07:43:56;;;;;;;21.92;15.07;;;;;;;10.39;70.63;96278.16;5025288;28;20092;-86
2023/04/21 07:46:28;;;;;;;20.15;13.65;;;;;;;10.38;71.09;96276.53;5016209;28;20066;-89
2023/04/21 07:48:56;;;;;;;18.95;14.15;;;;;;;10.39;71.25;96275.56;5010360;28;20042;-88
2023/04/21 07:51:24;;;;;;;21.92;15.75;;;;;;;10.44;71.14;96275.78;5026244;28;20054;-91
2023/04/21 07:53:52;;;;;;;18.05;14.18;;;;;;;10.49;71.50;96271.63;5011971;28;20133;-88
2023/04/21 07:56:21;;;;;;;21.08;14.82;;;;;;;10.55;70.31;96272.66;5016367;28;20493;-85
2023/04/21 07:58:49;;;;;;;21.45;14.73;;;;;;;10.61;70.14;96268.50;5022106;28;20062;-85
2023/04/21 08:01:17;;;;;;;20.17;14.65;;;;;;;10.69;69.89;96273.56;5021731;28;20037;-89
2023/04/21 08:03:45;;;;;;;19.02;14.40;;;;;;;10.77;70.03;96265.59;5021070;28;20050;-86
2023/04/21 08:06:13;;;;;;;20.27;14.35;;;;;;;10.88;70.17;96272.88;5023535;28;20049;-86
2023/04/21 08:08:41;;;;;;;20.70;15.18;;;;;;;10.99;68.87;96276.75;5022275;28;20062;-89
2023/04/21 08:11:09;;;;;;;19.17;13.88;;;;;;;11.06;69.22;96274.19;5022849;28;20141;-89
2023/04/21 08:13:39;;;;;;;19.95;15.45;;;;;;;11.22;68.48;96273.09;5020512;28;20042;-88
2023/04/21 08:16:07;;;;;;;19.52;13.77;;;;;;;11.41;68.55;96280.19;5021055;28;20065;-83
2023/04/21 08:18:35;;;;;;;20.08;14.98;;;;;;;11.65;68.06;96272.84;5021509;28;20544;-83
2023/04/21 08:21:03;;;;;;;22.02;15.98;;;;;;;11.94;66.98;96271.75;5021635;28;20049;-86
2023/04/21 08:23:31;;;;;;;20.52;14.60;;;;;;;12.24;67.18;96266.16;5021855;28;20476;-90
2023/04/21 08:25:59;;;;;;;17.73;12.95;;;;;;;12.57;66.48;96266.97;5021055;28;20053;-87
2023/04/21 08:28:27;;;;;;;19.38;14.10;;;;;;;12.90;64.60;96266.13;5021203;28;20060;-89
2023/04/21 08:30:56;;;;;;;16.70;13.45;;;;;;;13.12;64.41;96263.28;5019722;28;20555;-81
2023/04/21 08:33:24;;;;;;;17.70;13.27;;;;;;;13.18;64.48;96273.72;5019617;28;20056;-83
2023/04/21 08:35:53;;;;;;;18.58;13.85;;;;;;;13.26;63.15;96264.03;5019690;28;20521;-81
2023/04/21 08:38:36;;;;;;;17.92;14.40;;;;;;;13.50;62.97;96267.78;5012310;28;20061;-88
2023/04/21 08:41:05;;;;;;;17.35;13.02;;;;;;;13.77;63.31;96257.97;5000101;28;20050;-80
2023/04/21 08:43:33;;;;;;;17.73;13.88;;;;;;;14.07;61.42;96266.06;5012280;28;20081;-84
2023/04/21 08:46:06;;;;;;;18.90;13.98;;;;;;;14.27;60.00;96271.19;5007110;28;20132;-86
2023/04/21 08:48:36;;;;;;;19.40;14.40;;;;;;;14.46;59.28;96260.75;5012889;28;20054;-81
2023/04/21 08:51:05;;;;;;;15.23;12.95;;;;;;;14.58;60.43;96267.75;5000302;28;20081;-84
2023/04/21 08:53:35;;;;;;;14.15;11.85;;;;;;;14.67;59.16;96270.91;4999107;28;20058;-87
2023/04/21 08:56:04;;;;;;;16.25;12.77;;;;;;;14.81;59.57;96264.50;5008363;28;20057;-82
2023/04/21 08:58:35;;;;;;;15.60;12.15;;;;;;;14.93;59.42;96275.09;5019902;28;20053;-85
2023/04/21 09:01:05;;;;;;;20.95;14.32;;;;;;;14.96;60.07;96272.06;5019684;28;20042;-80
2023/04/21 09:03:33;;;;;;;21.63;14.50;;;;;;;14.98;58.55;96271.84;5019981;28;20137;-87
2023/04/21 09:06:04;;;;;;;16.77;13.00;;;;;;;14.97;58.48;96275.47;5020137;28;20085;-87
2023/04/21 09:08:33;;;;;;;14.32;11.73;;;;;;;14.81;58.37;96282.91;5019964;28;20069;-84
2023/04/21 09:11:02;;;;;;;15.18;13.00;;;;;;;14.79;58.66;96279.69;5003569;28;20050;-82
2023/04/21 09:13:31;;;;;;;15.48;13.00;;;;;;;14.87;57.86;96281.25;4998803;28;20066;-85
2023/04/21 09:16:01;;;;;;;15.40;12.70;;;;;;;14.93;58.29;96279.56;5001790;28;20047;-83
2023/04/21 09:18:34;;;;;;;14.18;11.85;;;;;;;14.92;57.83;96288.47;4999433;28;20042;-82
2023/04/21 09:21:07;;;;;;;14.52;11.45;;;;;;;14.85;57.36;96278.03;5000412;28;20489;-86
2023/04/21 09:23:46;;;;;;;14.98;12.05;;;;;;;14.79;57.24;96284.94;4999737;28;20054;-86
2023/04/21 09:26:15;;;;;;;17.67;13.30;;;;;;;14.78;57.81;96285.13;5006329;28;20058;-88
2023/04/21 09:28:44;;;;;;;16.88;13.40;;;;;;;14.80;57.77;96283.94;5014058;28;20084;-90
2023/04/21 09:31:18;;;;;;;16.45;13.02;;;;;;;14.97;57.02;96280.72;5003422;28;20129;-89
2023/04/21 09:33:51;;;;;;;16.67;11.77;;;;;;;15.13;58.52;96280.19;5011389;28;20050;-88
2023/04/21 09:36:24;;;;;;;13.15;11.57;;;;;;;15.47;56.68;96285.84;5016123;28;20057;-81
2023/04/21 09:38:57;;;;;;;13.32;11.38;;;;;;;15.63;55.37;96277.38;5016137;28;20077;-83
2023/04/21 09:41:45;;;;;;;15.43;12.10;;;;;;;15.89;55.24;96278.06;5017146;28;20058;-84
2023/04/21 09:44:13;;;;;;;14.32;11.55;;;;;;;16.07;54.36;96271.97;5006388;28;20529;-81
2023/04/21 09:46:43;;;;;;;12.05;10.50;;;;;;;16.28;55.36;96276.72;4998739;28;20395;-83
2023/04/21 09:49:16;;;;;;;16.63;11.80;;;;;;;16.51;54.29;96279.59;5005372;28;20054;-83
2023/04/21 09:51:43;;;;;;;;;;;;;;;16.75;54.74;96276.00;4999496;28;20434;-82
2023/04/21 09:54:33;;;;;;;12.93;10.70;;;;;;;16.99;54.14;96281.25;4997679;28;20378;-84
2023/04/21 09:57:04;;;;;;;12.20;10.35;;;;;;;16.97;52.89;96272.81;5015177;28;20058;-83
2023/04/21 09:59:35;;;;;;;13.18;10.88;;;;;;;16.88;53.08;96278.41;5016041;28;20058;-89
2023/04/21 10:02:08;;;;;;;13.20;10.60;;;;;;;16.80;53.39;96268.22;5001540;28;20181;-82
2023/04/21 10:04:42;;;;;;;12.98;11.18;;;;;;;16.77;52.31;96279.19;5012826;28;20505;-85
2023/04/21 10:07:12;;;;;;;13.73;10.75;;;;;;;16.80;52.89;96281.41;5016609;28;20080;-83
2023/04/21 10:09:45;;;;;;;11.30;9.40;;;;;;;16.99;51.97;96273.34;5016257;28;20041;-83
2023/04/21 10:12:14;;;;;;;13.02;10.18;;;;;;;17.12;51.04;96269.69;5016917;28;20072;-86
2023/04/21 10:14:42;;;;;;;11.93;9.27;;;;;;;17.18;51.73;96274.84;5015850;28;20045;-84
2023/04/21 10:17:11;;;;;;;12.05;10.52;;;;;;;17.25;51.45;96266.81;5016468;28;20476;-82
2023/04/21 10:19:49;;;;;;;10.25;8.88;;;;;;;17.44;51.32;96264.81;5015814;28;20513;-83
2023/04/21 10:22:28;;;;;;;10.55;8.63;;;;;;;17.66;50.14;96260.50;5015501;28;20046;-85
2023/04/21 10:24:57;;;;;;;11.07;9.75;;;;;;;17.80;50.03;96260.22;5015289;28;20058;-89
2023/04/21 10:27:32;;;;;;;12.40;10.20;;;;;;;17.77;48.96;96244.88;5015324;28;20062;-83
2023/04/21 10:30:00;;;;;;;10.77;8.43;;;;;;;17.69;49.77;96252.13;5015449;28;20092;-84
2023/04/21 10:32:40;;;;;;;11.85;8.95;;;;;;;17.56;48.94;96255.06;5014431;28;20054;-82
2023/04/21 10:35:13;;;;;;;9.77;8.52;;;;;;;17.40;49.42;96248.66;5015470;28;20056;-85
2023/04/21 10:37:42;;;;;;;10.40;8.65;;;;;;;17.35;50.58;96240.66;5012442;28;20069;-85
2023/04/21 10:40:35;;;;;;;8.75;7.85;;;;;;;17.23;49.61;96235.44;5008822;28;20077;-84
2023/04/21 10:43:06;;;;;;;11.98;8.43;;;;;;;17.18;50.68;96226.59;5000731;28;20066;-86
2023/04/21 10:45:33;;;;;;;9.77;8.07;;;;;;;17.09;51.00;96234.06;5017388;28;20057;-90
2023/04/21 10:48:02;;;;;;;11.73;10.23;;;;;;;16.99;50.67;96239.94;5018077;28;20065;-88
2023/04/21 10:50:32;;;;;;;12.38;9.70;;;;;;;16.88;52.26;96233.63;5001267;28;20051;-89
2023/04/21 10:53:09;;;;;;;11.38;9.70;;;;;;;16.88;51.45;96238.91;4998356;28;20058;-91
2023/04/21 10:55:41;;;;;;;12.70;10.45;;;;;;;16.87;51.14;96245.19;4997543;28;20122;-85
2023/04/21 10:58:10;;;;;;;14.95;10.05;;;;;;;16.74;50.96;96253.28;5016833;28;20049;-89
2023/04/21 11:00:38;;;;;;;11.10;9.80;;;;;;;16.79;51.18;96244.72;5019666;28;20046;-87
2023/04/21 11:03:07;;;;;;;13.05;10.25;;;;;;;16.81;50.84;96253.22;5020610;28;20513;-86
2023/04/21 11:05:44;;;;;;;13.63;9.60;;;;;;;16.93;51.76;96248.75;5020593;28;20137;-88
2023/04/21 11:08:15;;;;;;;10.63;9.35;;;;;;;17.14;51.15;96236.78;5020824;28;20144;-84
2023/04/21 11:10:50;;;;;;;;;;;;;;;17.37;51.63;96224.63;5022731;28;20054;-85
2023/04/21 11:13:21;;;;;;;15.05;8.38;;;;;;;17.47;51.94;96236.16;5024070;28;19928;-84
2023/04/21 11:16:04;;;;;;;10.02;8.00;;;;;;;17.64;51.30;96219.56;5011972;28;20408;-86
2023/04/21 11:18:40;;;;;;;10.07;8.27;;;;;;;17.74;49.54;96227.69;5025007;28;20050;-85
2023/04/21 11:21:12;;;;;;;9.75;7.85;;;;;;;17.82;49.42;96210.69;5018128;28;20486;-84
2023/04/21 11:23:41;;;;;;;12.73;8.13;;;;;;;17.75;49.15;96223.22;5004616;28;20061;-86
2023/04/21 11:26:08;;;;;;;11.13;8.82;;;;;;;17.64;49.32;96220.38;5003838;28;20039;-84
2023/04/21 11:28:36;;;;;;;9.55;7.68;;;;;;;17.53;49.25;96208.03;5005921;28;20101;-85
2023/04/21 11:31:04;;;;;;;10.65;7.45;;;;;;;17.45;50.26;96203.16;5021871;28;21692;-85
2023/04/21 11:33:36;;;;;;;10.23;6.90;;;;;;;17.46;49.81;96197.63;5019668;28;20065;-85